createdAt,value
2022-10-14T00:00:27.717Z,28.84
2022-10-14T00:01:59.285Z,26.55
2022-10-14T00:03:30.744Z,27.40
2022-10-14T00:05:02.224Z,25.92
2022-10-14T00:06:33.871Z,26.99
2022-10-14T00:08:05.112Z,26.33
2022-10-14T00:09:36.400Z,27.31
2022-10-14T00:11:07.935Z,26.04
2022-10-14T00:12:39.637Z,23.97
2022-10-14T00:14:10.980Z,24.04
2022-10-14T00:15:42.294Z,23.49
2022-10-14T00:17:13.713Z,26.04
2022-10-14T00:18:45.017Z,25.32
2022-10-14T00:20:16.402Z,24.14
2022-10-14T00:21:47.760Z,26.54
2022-10-14T00:23:19.315Z,25.74
2022-10-14T00:24:50.692Z,24.84
2022-10-14T00:26:27.055Z,24.79
2022-10-14T00:27:58.517Z,25.49
2022-10-14T00:29:30.177Z,23.51
2022-10-14T00:31:01.840Z,22.76
2022-10-14T00:32:33.613Z,23.94
2022-10-14T00:34:04.926Z,23.82
2022-10-14T00:35:36.383Z,24.98
2022-10-14T00:37:07.673Z,22.94
2022-10-14T00:38:39.679Z,22.02
2022-10-14T00:40:11.113Z,25.98
2022-10-14T00:41:42.399Z,24.16
2022-10-14T00:43:13.936Z,23.29
2022-10-14T00:44:45.555Z,23.29
2022-10-14T00:46:17.035Z,24.49
2022-10-14T00:47:48.729Z,24.04
2022-10-14T00:49:20.022Z,24.72
2022-10-14T00:51:06.605Z,27.48
2022-10-14T00:52:37.902Z,23.97
2022-10-14T00:54:09.650Z,22.02
2022-10-14T00:55:41.002Z,22.56
2022-10-14T00:57:12.316Z,24.09
2022-10-14T00:58:43.742Z,22.72
2022-10-14T01:00:15.255Z,24.29
2022-10-14T01:01:46.564Z,24.03
2022-10-14T01:03:17.846Z,24.48
2022-10-14T01:04:49.297Z,23.87
2022-10-14T01:06:20.604Z,25.87
2022-10-14T01:07:51.932Z,25.00
2022-10-14T01:09:23.209Z,25.34
2022-10-14T01:10:54.654Z,25.21
2022-10-14T01:12:29.623Z,25.88
2022-10-14T01:14:01.608Z,25.07
2022-10-14T01:15:33.069Z,26.10
2022-10-14T01:17:04.631Z,24.22
2022-10-14T01:18:35.925Z,26.06
2022-10-14T01:20:07.462Z,24.81
2022-10-14T01:21:39.078Z,29.07
2022-10-14T01:23:10.509Z,25.89
2022-10-14T01:24:41.771Z,27.34
2022-10-14T01:26:13.323Z,28.01
2022-10-14T01:27:44.610Z,25.12
2022-10-14T01:29:16.393Z,29.14
2022-10-14T01:30:47.875Z,30.58
2022-10-14T01:32:19.855Z,26.80
2022-10-14T01:33:51.634Z,26.72
2022-10-14T01:35:23.296Z,26.64
2022-10-14T01:36:54.700Z,27.85
2022-10-14T01:38:26.160Z,26.94
2022-10-14T01:39:57.541Z,25.06
2022-10-14T01:41:28.936Z,26.92
2022-10-14T01:43:00.591Z,27.58
2022-10-14T01:44:31.862Z,27.02
2022-10-14T01:46:03.406Z,26.72
2022-10-14T01:47:35.972Z,25.77
2022-10-14T01:49:07.416Z,27.60
2022-10-14T01:50:38.749Z,26.47
2022-10-14T01:52:10.041Z,25.99
2022-10-14T01:53:41.554Z,24.61
2022-10-14T01:55:13.003Z,26.14
2022-10-14T01:56:44.326Z,24.88
2022-10-14T01:58:15.980Z,23.76
2022-10-14T01:59:47.370Z,25.05
2022-10-14T02:01:18.697Z,22.61
2022-10-14T02:02:50.315Z,23.80
2022-10-14T02:04:21.675Z,22.41
2022-10-14T02:05:53.233Z,22.56
2022-10-14T02:07:25.221Z,22.49
2022-10-14T02:08:56.693Z,23.79
2022-10-14T02:10:28.250Z,24.40
2022-10-14T02:11:59.707Z,21.41
2022-10-14T02:13:31.167Z,20.66
2022-10-14T02:15:02.625Z,20.19
2022-10-14T02:16:33.929Z,21.07
2022-10-14T02:18:05.795Z,22.47
2022-10-14T02:19:37.566Z,22.48
2022-10-14T02:21:09.012Z,17.84
2022-10-14T02:22:40.478Z,17.46
2022-10-14T02:24:11.936Z,18.21
2022-10-14T02:25:43.194Z,16.48
2022-10-14T02:27:14.470Z,16.32
2022-10-14T02:28:46.049Z,16.89
2022-10-14T02:30:17.467Z,17.74
2022-10-14T02:31:49.305Z,15.85
2022-10-14T02:33:20.783Z,15.14
2022-10-14T02:34:52.149Z,16.75
2022-10-14T02:36:23.522Z,16.40
2022-10-14T02:37:55.182Z,15.86
2022-10-14T02:39:26.535Z,15.11
2022-10-14T02:40:58.099Z,14.51
2022-10-14T02:42:29.528Z,16.14
2022-10-14T02:44:01.069Z,17.29
2022-10-14T02:45:32.443Z,14.83
2022-10-14T02:47:03.661Z,14.76
2022-10-14T02:48:35.268Z,15.23
2022-10-14T02:50:06.927Z,14.08
2022-10-14T02:51:38.459Z,14.94
2022-10-14T02:53:10.035Z,15.30
2022-10-14T02:54:41.375Z,14.09
2022-10-14T02:56:12.719Z,14.64
2022-10-14T02:57:44.217Z,13.95
2022-10-14T02:59:15.741Z,15.21
2022-10-14T03:00:47.425Z,15.00
2022-10-14T03:02:19.461Z,15.78
2022-10-14T03:03:51.146Z,14.22
2022-10-14T03:05:22.913Z,14.96
2022-10-14T03:06:54.260Z,15.86
2022-10-14T03:08:25.606Z,14.15
2022-10-14T03:09:57.077Z,15.11
2022-10-14T03:11:28.611Z,13.34
2022-10-14T03:13:00.302Z,13.95
2022-10-14T03:14:31.656Z,14.18
2022-10-14T03:16:03.215Z,15.18
2022-10-14T03:17:34.587Z,14.47
2022-10-14T03:19:06.367Z,14.60
2022-10-14T03:20:37.748Z,14.72
2022-10-14T03:22:09.877Z,14.38
2022-10-14T03:23:41.249Z,15.20
2022-10-14T03:25:12.828Z,13.84
2022-10-14T03:26:44.417Z,14.66
2022-10-14T03:28:16.404Z,14.29
2022-10-14T03:29:48.155Z,16.82
2022-10-14T03:31:19.551Z,14.73
2022-10-14T03:32:51.027Z,15.50
2022-10-14T03:34:22.501Z,15.74
2022-10-14T03:35:53.821Z,13.97
2022-10-14T03:37:25.323Z,14.47
2022-10-14T03:38:56.638Z,13.99
2022-10-14T03:40:27.974Z,13.24
2022-10-14T03:41:59.335Z,14.40
2022-10-14T03:43:30.615Z,13.51
2022-10-14T03:45:02.041Z,13.97
2022-10-14T03:46:33.942Z,12.75
2022-10-14T03:48:05.261Z,13.50
2022-10-14T03:49:36.677Z,13.22
2022-10-14T03:51:07.940Z,12.77
2022-10-14T03:52:42.547Z,13.23
2022-10-14T03:54:18.225Z,12.60
2022-10-14T03:55:49.684Z,12.91
2022-10-14T03:57:21.433Z,12.46
2022-10-14T03:58:52.845Z,12.40
2022-10-14T04:00:24.487Z,11.65
2022-10-14T04:01:55.946Z,12.81
2022-10-14T04:03:27.537Z,15.47
2022-10-14T04:05:01.099Z,12.16
2022-10-14T04:06:32.777Z,11.04
2022-10-14T04:08:04.200Z,12.14
2022-10-14T04:09:35.606Z,12.75
2022-10-14T04:11:07.051Z,11.76
2022-10-14T04:12:38.350Z,11.38
2022-10-14T04:14:09.693Z,11.14
2022-10-14T04:15:40.974Z,11.66
2022-10-14T04:17:12.420Z,11.79
2022-10-14T04:18:43.788Z,11.61
2022-10-14T04:20:15.260Z,11.34
2022-10-14T04:21:46.541Z,10.57
2022-10-14T04:23:18.298Z,10.40
2022-10-14T04:24:49.669Z,9.92
2022-10-14T04:26:21.863Z,9.56
2022-10-14T04:27:53.317Z,9.85
2022-10-14T04:29:24.972Z,11.32
2022-10-14T04:30:56.587Z,10.50
2022-10-14T04:32:27.945Z,10.65
2022-10-14T04:33:59.653Z,10.05
2022-10-14T04:35:31.139Z,9.66
2022-10-14T04:37:02.925Z,10.41
2022-10-14T04:38:34.542Z,10.42
2022-10-14T04:40:05.789Z,9.55
2022-10-14T04:41:37.498Z,10.29
2022-10-14T04:43:08.929Z,10.40
2022-10-14T04:44:41.198Z,8.73
2022-10-14T04:46:12.867Z,10.78
2022-10-14T04:47:48.466Z,8.86
2022-10-14T04:49:20.738Z,8.55
2022-10-14T04:50:52.140Z,9.01
2022-10-14T04:52:23.972Z,9.98
2022-10-14T04:53:55.587Z,9.40
2022-10-14T04:55:27.231Z,9.78
2022-10-14T04:56:58.634Z,9.44
2022-10-14T04:58:29.979Z,9.22
2022-10-14T05:00:01.556Z,8.35
2022-10-14T05:01:34.265Z,8.27
2022-10-14T05:03:05.673Z,8.90
2022-10-14T05:04:37.106Z,9.08
2022-10-14T05:06:08.544Z,9.11
2022-10-14T05:07:39.952Z,8.34
2022-10-14T05:09:11.403Z,8.10
2022-10-14T05:10:43.002Z,8.05
2022-10-14T05:12:14.286Z,9.41
2022-10-14T05:13:45.869Z,8.00
2022-10-14T05:15:17.527Z,7.88
2022-10-14T05:16:49.865Z,7.99
2022-10-14T05:18:21.283Z,7.59
2022-10-14T05:19:52.652Z,7.64
2022-10-14T05:21:23.920Z,8.22
2022-10-14T05:22:55.421Z,7.69
2022-10-14T05:24:28.152Z,8.36
2022-10-14T05:25:59.845Z,8.78
2022-10-14T05:27:31.204Z,7.14
2022-10-14T05:29:02.547Z,7.37
2022-10-14T05:30:35.008Z,7.76
2022-10-14T05:32:06.513Z,8.67
2022-10-14T05:33:37.990Z,6.79
2022-10-14T05:35:09.246Z,7.37
2022-10-14T05:36:40.576Z,8.43
2022-10-14T05:38:12.105Z,9.20
2022-10-14T05:39:43.401Z,7.31
2022-10-14T05:41:14.879Z,9.06
2022-10-14T05:42:46.387Z,8.28
2022-10-14T05:44:18.031Z,7.94
2022-10-14T05:45:49.682Z,9.98
2022-10-14T05:47:21.360Z,8.58
2022-10-14T05:48:52.841Z,9.20
2022-10-14T05:50:24.375Z,9.14
2022-10-14T05:51:55.821Z,9.38
2022-10-14T05:53:27.676Z,9.86
2022-10-14T05:54:59.217Z,8.99
2022-10-14T05:56:30.786Z,8.99
2022-10-14T05:58:02.142Z,8.04
2022-10-14T05:59:33.544Z,9.74
2022-10-14T06:01:04.930Z,9.08
2022-10-14T06:02:36.309Z,8.66
2022-10-14T06:04:07.752Z,9.12
2022-10-14T06:05:39.358Z,8.99
2022-10-14T06:07:10.821Z,8.44
2022-10-14T06:08:42.516Z,8.27
2022-10-14T06:10:13.851Z,7.81
2022-10-14T06:11:45.197Z,8.83
2022-10-14T06:13:21.769Z,9.79
2022-10-14T06:14:53.064Z,13.63
2022-10-14T06:16:29.570Z,12.17
2022-10-14T06:18:00.951Z,8.86
2022-10-14T06:19:32.539Z,8.48
2022-10-14T06:21:04.092Z,10.74
2022-10-14T06:22:35.390Z,8.70
2022-10-14T06:24:12.968Z,7.63
2022-10-14T06:25:44.273Z,9.24
2022-10-14T06:27:15.966Z,7.74
2022-10-14T06:28:47.410Z,9.32
2022-10-14T06:30:18.823Z,8.98
2022-10-14T06:31:50.213Z,10.26
2022-10-14T06:33:21.580Z,9.90
2022-10-14T06:34:53.005Z,8.76
2022-10-14T06:36:24.556Z,7.96
2022-10-14T06:37:56.070Z,7.45
2022-10-14T06:39:27.640Z,9.49
2022-10-14T06:40:59.284Z,7.68
2022-10-14T06:42:30.803Z,7.56
2022-10-14T06:44:02.135Z,7.15
2022-10-14T06:45:33.622Z,7.97
2022-10-14T06:47:05.033Z,6.78
2022-10-14T06:48:36.540Z,7.23
2022-10-14T06:50:08.036Z,7.40
2022-10-14T06:51:39.889Z,7.93
2022-10-14T06:53:11.250Z,7.28
2022-10-14T06:54:48.051Z,6.68
2022-10-14T06:56:19.958Z,7.47
2022-10-14T06:57:51.306Z,5.99
2022-10-14T06:59:22.763Z,7.99
2022-10-14T07:00:54.433Z,7.61
2022-10-14T07:02:26.027Z,5.83
2022-10-14T07:03:57.384Z,7.67
2022-10-14T07:05:28.708Z,6.96
2022-10-14T07:07:00.083Z,7.81
2022-10-14T07:08:31.538Z,8.04
2022-10-14T07:10:02.973Z,7.13
2022-10-14T07:11:34.386Z,8.84
2022-10-14T07:13:05.858Z,9.77
2022-10-14T07:14:37.475Z,7.20
2022-10-14T07:16:09.035Z,6.97
2022-10-14T07:17:40.360Z,7.15
2022-10-14T07:19:11.862Z,5.96
2022-10-14T07:20:43.514Z,6.38
2022-10-14T07:22:15.570Z,5.73
2022-10-14T07:23:47.060Z,6.56
2022-10-14T07:25:18.554Z,6.74
2022-10-14T07:26:50.076Z,7.12
2022-10-14T07:30:26.112Z,7.28
2022-10-14T07:31:57.476Z,7.34
2022-10-14T07:33:28.942Z,6.67
2022-10-14T07:35:00.514Z,6.10
2022-10-14T07:36:37.159Z,5.57
2022-10-14T07:38:18.724Z,7.31
2022-10-14T07:39:50.183Z,6.24
2022-10-14T07:41:21.525Z,6.54
2022-10-14T07:42:52.998Z,5.00
2022-10-14T07:44:29.470Z,5.66
2022-10-14T07:46:00.879Z,8.21
2022-10-14T07:47:37.313Z,7.19
2022-10-14T07:49:08.646Z,7.79
2022-10-14T07:50:40.092Z,5.72
2022-10-14T07:52:11.968Z,5.57
2022-10-14T07:53:48.435Z,5.89
2022-10-14T07:55:20.125Z,5.11
2022-10-14T07:56:51.466Z,5.73
2022-10-14T07:58:22.932Z,6.11
2022-10-14T07:59:54.386Z,6.91
2022-10-14T08:01:31.001Z,6.12
2022-10-14T08:03:02.721Z,5.59
2022-10-14T08:04:34.087Z,5.68
2022-10-14T08:06:30.176Z,4.96
2022-10-14T08:08:28.706Z,6.01
2022-10-14T08:10:05.117Z,5.76
2022-10-14T08:11:36.547Z,6.31
2022-10-14T08:13:13.039Z,5.37
2022-10-14T08:14:44.389Z,5.27
2022-10-14T08:16:36.218Z,5.37
2022-10-14T08:18:07.699Z,5.68
2022-10-14T08:19:39.039Z,7.82
2022-10-14T08:21:25.454Z,6.60
2022-10-14T08:22:56.901Z,6.42
2022-10-14T08:24:39.072Z,4.66
2022-10-14T08:26:10.383Z,4.20
2022-10-14T08:27:42.156Z,4.35
2022-10-14T08:29:13.523Z,5.20
2022-10-14T08:30:44.802Z,6.17
2022-10-14T08:32:17.553Z,3.92
2022-10-14T08:33:48.972Z,4.13
2022-10-14T08:35:20.499Z,5.33
2022-10-14T08:36:54.833Z,5.14
2022-10-14T08:38:41.688Z,4.43
2022-10-14T08:40:13.236Z,3.93
2022-10-14T08:41:45.830Z,4.19
2022-10-14T08:43:26.380Z,5.12
2022-10-14T08:44:57.793Z,4.84
2022-10-14T08:46:29.193Z,3.91
2022-10-14T08:48:00.604Z,4.37
2022-10-14T08:49:31.928Z,4.20
2022-10-14T08:51:03.207Z,3.73
2022-10-14T08:52:37.397Z,4.14
2022-10-14T08:54:09.150Z,4.14
2022-10-14T08:55:40.620Z,4.18
2022-10-14T08:57:12.107Z,2.51
2022-10-14T08:58:43.531Z,4.29
2022-10-14T09:00:14.838Z,4.86
2022-10-14T09:01:46.523Z,4.63
2022-10-14T09:03:17.841Z,3.83
2022-10-14T09:04:49.383Z,2.64
2022-10-14T09:06:20.756Z,3.36
2022-10-14T09:07:52.129Z,4.40
2022-10-14T09:09:23.703Z,3.37
2022-10-14T09:10:55.123Z,3.94
2022-10-14T09:12:26.519Z,2.74
2022-10-14T09:14:49.660Z,3.41
2022-10-14T09:16:23.446Z,2.61
2022-10-14T09:17:55.909Z,2.81
2022-10-14T09:19:27.359Z,2.85
2022-10-14T09:21:00.222Z,3.68
2022-10-14T09:22:31.874Z,3.22
2022-10-14T09:24:36.561Z,2.91
2022-10-14T09:26:08.351Z,2.78
2022-10-14T09:27:39.907Z,1.56
2022-10-14T09:29:11.339Z,2.36
2022-10-14T09:30:42.918Z,4.04
2022-10-14T09:32:14.415Z,2.65
2022-10-14T09:33:46.213Z,2.72
2022-10-14T09:35:17.694Z,2.17
2022-10-14T09:36:49.479Z,2.95
2022-10-14T09:38:20.952Z,1.61
2022-10-14T09:39:52.474Z,1.65
2022-10-14T09:41:24.072Z,1.70
2022-10-14T09:45:19.279Z,3.21
2022-10-14T09:46:50.925Z,2.61
2022-10-14T09:48:22.392Z,1.26
2022-10-14T09:49:54.048Z,1.21
2022-10-14T09:51:35.811Z,1.80
2022-10-14T09:53:10.854Z,1.77
2022-10-14T09:54:52.952Z,2.09
2022-10-14T09:56:56.941Z,2.04
2022-10-14T09:58:38.441Z,2.02
2022-10-14T10:00:10.039Z,1.93
2022-10-14T10:01:41.482Z,1.67
2022-10-14T10:03:27.948Z,2.03
2022-10-14T10:04:59.397Z,1.42
2022-10-14T10:06:30.861Z,1.92
2022-10-14T10:08:02.181Z,4.31
2022-10-14T10:09:33.531Z,2.67
2022-10-14T10:11:06.677Z,2.14
2022-10-14T10:12:38.564Z,2.99
2022-10-14T10:14:09.956Z,1.39
2022-10-14T10:15:41.420Z,0.97
2022-10-14T10:17:12.786Z,2.53
2022-10-14T10:18:44.201Z,1.48
2022-10-14T10:20:16.138Z,1.72
2022-10-14T10:21:57.596Z,1.71
2022-10-14T10:23:29.145Z,1.41
2022-10-14T10:25:00.666Z,0.95
2022-10-14T10:26:32.015Z,1.78
2022-10-14T10:28:03.431Z,1.37
2022-10-14T10:29:50.491Z,0.88
2022-10-14T10:31:32.332Z,1.34
2022-10-14T10:33:20.693Z,1.23
2022-10-14T10:34:52.340Z,1.74
2022-10-14T10:36:30.848Z,1.47
2022-10-14T10:38:02.193Z,1.33
2022-10-14T10:42:15.429Z,1.11
2022-10-14T10:43:53.223Z,1.34
2022-10-14T10:45:24.794Z,1.07
2022-10-14T10:46:56.447Z,1.93
2022-10-14T10:48:27.959Z,1.64
2022-10-14T10:50:14.518Z,2.28
2022-10-14T10:51:46.300Z,1.55
2022-10-14T10:54:21.422Z,2.14
2022-10-14T10:55:53.382Z,1.39
2022-10-14T10:57:27.890Z,2.42
2022-10-14T10:58:59.531Z,1.46
2022-10-14T11:00:41.229Z,1.56
2022-10-14T11:02:18.308Z,1.75
2022-10-14T11:03:49.955Z,1.69
2022-10-14T11:05:21.493Z,2.60
2022-10-14T11:09:05.080Z,1.64
2022-10-14T11:10:46.665Z,1.70
2022-10-14T11:12:30.500Z,1.83
2022-10-14T11:14:02.096Z,1.70
2022-10-14T11:15:39.456Z,1.66
2022-10-14T11:17:10.909Z,2.24
2022-10-14T11:18:43.068Z,2.06
2022-10-14T11:20:16.016Z,2.10
2022-10-14T11:21:47.926Z,3.78
2022-10-14T11:23:19.604Z,2.98
2022-10-14T11:25:01.271Z,2.34
2022-10-14T11:28:04.770Z,2.45
2022-10-14T11:29:36.120Z,2.36
2022-10-14T11:31:07.655Z,2.75
2022-10-14T11:32:39.278Z,2.45
2022-10-14T11:34:15.667Z,3.30
2022-10-14T11:35:47.169Z,4.97
2022-10-14T11:37:18.751Z,4.80
2022-10-14T11:38:50.165Z,6.06
2022-10-14T11:40:22.062Z,5.42
2022-10-14T11:41:53.757Z,4.35
2022-10-14T11:43:40.517Z,5.56
2022-10-14T11:45:12.932Z,6.94
2022-10-14T11:46:45.250Z,5.46
2022-10-14T11:48:16.720Z,4.83
2022-10-14T11:49:48.138Z,7.24
2022-10-14T11:51:19.472Z,4.81
2022-10-14T11:52:50.916Z,7.06
2022-10-14T11:54:22.633Z,6.75
2022-10-14T11:55:54.146Z,5.63
2022-10-14T11:57:25.564Z,6.25
2022-10-14T11:58:57.297Z,7.04
2022-10-14T12:00:28.688Z,6.21
2022-10-14T12:02:00.117Z,6.42
2022-10-14T12:04:19.507Z,6.67
2022-10-14T12:05:51.484Z,7.25
2022-10-14T12:07:23.141Z,9.28
2022-10-14T12:08:54.913Z,7.44
2022-10-14T12:10:27.667Z,6.32
2022-10-14T12:11:59.404Z,7.70
2022-10-14T12:13:31.063Z,8.11
2022-10-14T12:15:02.912Z,6.37
2022-10-14T12:16:34.700Z,7.27
2022-10-14T12:18:06.696Z,7.62
2022-10-14T12:19:38.304Z,8.90
2022-10-14T12:21:09.919Z,8.46
2022-10-14T12:23:03.493Z,11.88
2022-10-14T12:24:45.552Z,11.49
2022-10-14T12:26:17.383Z,8.42
2022-10-14T12:27:49.461Z,7.55
2022-10-14T12:29:26.021Z,7.89
2022-10-14T12:30:57.615Z,8.40
2022-10-14T12:32:39.218Z,10.70
2022-10-14T12:34:26.404Z,8.29
2022-10-14T12:35:57.723Z,9.52
2022-10-14T12:37:31.632Z,8.85
2022-10-14T12:39:03.984Z,8.56
2022-10-14T12:40:35.442Z,9.18
2022-10-14T12:42:06.954Z,8.27
2022-10-14T12:43:38.417Z,8.13
2022-10-14T12:45:09.916Z,8.00
2022-10-14T12:46:46.379Z,7.12
2022-10-14T12:48:17.911Z,8.02
2022-10-14T12:49:49.578Z,8.04
2022-10-14T12:51:21.436Z,10.27
2022-10-14T12:53:12.633Z,7.81
2022-10-14T12:54:44.429Z,8.75
2022-10-14T12:56:21.056Z,9.37
2022-10-14T12:57:52.827Z,7.98
2022-10-14T12:59:24.266Z,8.97
2022-10-14T13:00:56.052Z,9.22
2022-10-14T13:02:27.642Z,11.05
2022-10-14T13:03:59.157Z,12.15
2022-10-14T13:05:30.698Z,9.92
2022-10-14T13:07:07.478Z,10.96
2022-10-14T13:08:43.412Z,8.90
2022-10-14T13:10:14.891Z,9.64
2022-10-14T13:11:46.208Z,9.18
2022-10-14T13:13:18.148Z,9.74
2022-10-14T13:14:49.665Z,11.56
2022-10-14T13:16:49.816Z,10.19
2022-10-14T13:18:21.214Z,11.21
2022-10-14T13:19:52.813Z,9.44
2022-10-14T13:21:24.197Z,11.09
2022-10-14T13:23:05.675Z,9.85
2022-10-14T13:24:37.085Z,9.56
2022-10-14T13:26:24.969Z,10.21
2022-10-14T13:28:02.325Z,9.55
2022-10-14T13:29:45.052Z,9.99
2022-10-14T13:31:26.420Z,9.30
2022-10-14T13:32:57.968Z,7.50
2022-10-14T13:34:51.225Z,9.36
2022-10-14T13:36:35.144Z,7.78
2022-10-14T13:38:06.489Z,8.58
2022-10-14T13:39:39.607Z,8.89
2022-10-14T13:41:11.183Z,7.78
2022-10-14T13:42:52.769Z,8.05
2022-10-14T13:44:49.156Z,10.92
2022-10-14T13:46:38.462Z,10.30
2022-10-14T13:48:09.915Z,8.54
2022-10-14T13:49:41.217Z,6.88
2022-10-14T13:51:24.536Z,7.19
2022-10-14T13:53:12.047Z,5.93
2022-10-14T13:55:23.639Z,5.97
2022-10-14T13:59:07.990Z,6.34
2022-10-14T14:00:48.889Z,5.13
2022-10-14T14:02:20.677Z,5.49
2022-10-14T14:04:13.725Z,8.13
2022-10-14T14:05:45.337Z,5.98
2022-10-14T14:07:59.143Z,6.40
2022-10-14T14:10:16.018Z,5.46
2022-10-14T14:11:48.784Z,6.36
2022-10-14T14:13:30.557Z,10.24
2022-10-14T14:15:02.037Z,13.10
2022-10-14T14:16:33.554Z,8.02
2022-10-14T14:18:30.454Z,5.36
2022-10-14T14:20:09.743Z,5.46
2022-10-14T14:21:41.116Z,5.70
2022-10-14T14:23:48.550Z,6.59
2022-10-14T14:25:34.401Z,7.41
2022-10-14T14:27:30.045Z,6.77
2022-10-14T14:29:02.850Z,7.35
2022-10-14T14:30:34.473Z,4.65
2022-10-14T14:32:07.503Z,4.64
2022-10-14T14:33:40.102Z,4.52
2022-10-14T14:35:18.146Z,4.92
2022-10-14T14:36:57.896Z,5.41
2022-10-14T14:38:33.005Z,4.20
2022-10-14T14:40:05.052Z,6.22
2022-10-14T14:41:41.678Z,6.29
2022-10-14T14:43:20.859Z,4.76
2022-10-14T14:44:53.134Z,5.45
2022-10-14T14:46:25.067Z,4.87
2022-10-14T14:47:56.994Z,4.22
2022-10-14T14:49:28.842Z,3.75
2022-10-14T14:51:00.479Z,4.52
2022-10-14T14:52:32.429Z,5.03
2022-10-14T14:54:14.250Z,5.26
2022-10-14T14:55:46.081Z,3.44
2022-10-14T14:57:21.693Z,4.51
2022-10-14T14:58:59.013Z,5.54
2022-10-14T15:00:35.679Z,5.25
2022-10-14T15:02:07.173Z,4.51
2022-10-14T15:03:39.292Z,3.76
2022-10-14T15:05:50.720Z,4.34
2022-10-14T15:07:22.718Z,4.39
2022-10-14T15:08:59.214Z,4.07
2022-10-14T15:10:32.860Z,5.38
2022-10-14T15:12:04.530Z,7.02
2022-10-14T15:13:36.131Z,5.41
2022-10-14T15:15:08.422Z,3.91
2022-10-14T15:16:40.793Z,4.12
2022-10-14T15:18:12.485Z,3.75
2022-10-14T15:19:44.980Z,3.67
2022-10-14T15:21:31.466Z,4.10
2022-10-14T15:23:03.057Z,4.27
2022-10-14T15:24:59.405Z,5.41
2022-10-14T15:26:46.108Z,4.60
2022-10-14T15:28:22.491Z,4.45
2022-10-14T15:29:54.073Z,4.68
2022-10-14T15:31:40.482Z,4.54
2022-10-14T15:33:12.181Z,4.37
2022-10-14T15:34:43.514Z,5.77
2022-10-14T15:36:14.893Z,4.36
2022-10-14T15:37:46.414Z,4.58
2022-10-14T15:39:27.939Z,4.81
2022-10-14T15:41:09.278Z,5.43
2022-10-14T15:42:40.670Z,4.95
2022-10-14T15:44:12.064Z,5.16
2022-10-14T15:45:43.396Z,5.47
2022-10-14T15:47:14.971Z,6.89
2022-10-14T15:48:47.091Z,7.17
2022-10-14T15:50:18.655Z,5.87
2022-10-14T15:51:50.481Z,6.29
2022-10-14T15:53:28.482Z,5.71
2022-10-14T15:55:02.067Z,4.05
2022-10-14T15:56:33.597Z,3.68
2022-10-14T15:58:05.139Z,4.23
2022-10-14T15:59:37.070Z,4.99
2022-10-14T16:01:08.879Z,4.29
2022-10-14T16:02:40.392Z,4.18
2022-10-14T16:04:12.034Z,5.15
2022-10-14T16:05:43.658Z,4.80
2022-10-14T16:07:15.204Z,4.90
2022-10-14T16:08:46.626Z,4.27
2022-10-14T16:10:29.457Z,5.18
2022-10-14T16:12:04.130Z,4.36
2022-10-14T16:13:46.130Z,4.41
2022-10-14T16:15:47.851Z,4.90
2022-10-14T16:17:19.280Z,5.00
2022-10-14T16:18:50.665Z,4.39
2022-10-14T16:20:22.369Z,5.21
2022-10-14T16:22:03.980Z,4.85
2022-10-14T16:23:35.674Z,12.99
2022-10-14T16:25:07.137Z,16.50
2022-10-14T16:26:49.089Z,6.26
2022-10-14T16:28:20.993Z,6.17
2022-10-14T16:29:53.559Z,4.81
2022-10-14T16:31:30.425Z,4.06
2022-10-14T16:33:01.904Z,4.39
2022-10-14T16:34:33.589Z,4.30
2022-10-14T16:36:04.993Z,6.04
2022-10-14T16:37:36.297Z,5.84
2022-10-14T16:39:07.790Z,5.73
2022-10-14T16:40:39.539Z,5.39
2022-10-14T16:42:10.992Z,4.21
2022-10-14T16:43:47.688Z,5.04
2022-10-14T16:45:19.199Z,4.80
2022-10-14T16:46:55.682Z,6.13
2022-10-14T16:48:47.430Z,5.67
2022-10-14T16:50:19.327Z,5.54
2022-10-14T16:51:56.050Z,5.03
2022-10-14T16:53:27.592Z,5.68
2022-10-14T16:54:59.178Z,5.17
2022-10-14T16:56:30.687Z,5.22
2022-10-14T16:58:12.397Z,5.86
2022-10-14T16:59:43.824Z,5.73
2022-10-14T17:01:15.367Z,5.34
2022-10-14T17:02:46.807Z,5.76
2022-10-14T17:04:38.553Z,6.14
2022-10-14T17:06:10.052Z,6.50
2022-10-14T17:07:41.522Z,8.83
2022-10-14T17:09:27.939Z,8.45
2022-10-14T17:10:59.664Z,6.80
2022-10-14T17:12:41.057Z,7.07
2022-10-14T17:14:13.016Z,8.00
2022-10-14T17:15:44.477Z,7.33
2022-10-14T17:17:16.341Z,7.46
2022-10-14T17:20:20.533Z,8.16
2022-10-14T17:21:51.930Z,8.60
2022-10-14T17:23:23.635Z,8.23
2022-10-14T17:24:55.074Z,6.88
2022-10-14T17:26:26.462Z,7.48
2022-10-14T17:27:58.288Z,8.33
2022-10-14T17:29:29.777Z,9.11
2022-10-14T17:31:01.344Z,8.30
2022-10-14T17:32:33.231Z,8.85
2022-10-14T17:34:04.692Z,8.63
2022-10-14T17:35:36.355Z,8.32
2022-10-14T17:38:39.407Z,7.83
2022-10-14T17:40:10.865Z,9.68
2022-10-14T17:41:42.442Z,8.68
2022-10-14T17:43:14.187Z,9.30
2022-10-14T17:44:45.686Z,9.58
2022-10-14T17:46:17.012Z,10.14
2022-10-14T17:47:48.707Z,8.75
2022-10-14T17:49:20.385Z,9.72
2022-10-14T17:50:51.931Z,9.17
2022-10-14T17:52:43.521Z,9.60
2022-10-14T17:54:15.837Z,9.25
2022-10-14T17:55:47.616Z,10.02
2022-10-14T17:57:18.923Z,10.46
2022-10-14T17:59:13.796Z,8.95
2022-10-14T18:00:50.581Z,11.08
2022-10-14T18:02:22.084Z,9.19
2022-10-14T18:03:53.652Z,8.50
2022-10-14T18:05:25.142Z,8.45
2022-10-14T18:07:11.723Z,8.56
2022-10-14T18:08:48.244Z,8.94
2022-10-14T18:10:19.889Z,8.87
2022-10-14T18:12:09.196Z,10.20
2022-10-14T18:14:09.217Z,9.22
2022-10-14T18:15:40.845Z,9.27
2022-10-14T18:17:12.622Z,9.07
2022-10-14T18:18:44.796Z,8.80
2022-10-14T18:20:16.404Z,8.68
2022-10-14T18:21:47.909Z,8.89
2022-10-14T18:23:29.535Z,9.78
2022-10-14T18:25:00.909Z,11.89
2022-10-14T18:26:51.609Z,9.80
2022-10-14T18:28:23.393Z,11.19
2022-10-14T18:29:55.173Z,9.58
2022-10-14T18:31:26.805Z,10.56
2022-10-14T18:32:58.552Z,11.33
2022-10-14T18:34:30.527Z,9.33
2022-10-14T18:36:01.972Z,10.12
2022-10-14T18:37:52.288Z,10.25
2022-10-14T18:39:44.353Z,11.54
2022-10-14T18:41:16.403Z,10.91
2022-10-14T18:42:53.461Z,11.54
2022-10-14T18:44:25.530Z,10.35
2022-10-14T18:45:57.395Z,10.33
2022-10-14T18:47:29.049Z,10.82
2022-10-14T18:49:03.054Z,10.00
2022-10-14T18:50:34.338Z,10.06
2022-10-14T18:52:12.067Z,10.95
2022-10-14T18:53:43.628Z,12.35
2022-10-14T18:55:15.164Z,13.31
2022-10-14T18:56:46.870Z,13.01
2022-10-14T18:58:18.537Z,14.04
2022-10-14T18:59:50.209Z,13.74
2022-10-14T19:01:31.688Z,12.12
2022-10-14T19:03:21.992Z,11.46
2022-10-14T19:04:53.752Z,11.83
2022-10-14T19:06:25.674Z,11.03
2022-10-14T19:07:57.307Z,11.35
2022-10-14T19:09:28.853Z,12.37
2022-10-14T19:11:37.603Z,11.87
2022-10-14T19:13:09.777Z,12.24
2022-10-14T19:14:41.929Z,12.26
2022-10-14T19:16:14.107Z,11.45
2022-10-14T19:17:47.743Z,13.25
2022-10-14T19:19:20.579Z,13.50
2022-10-14T19:20:52.780Z,14.04
2022-10-14T19:22:24.877Z,13.19
2022-10-14T19:23:56.409Z,12.68
2022-10-14T19:25:27.893Z,14.65
2022-10-14T19:27:19.764Z,12.92
2022-10-14T19:28:51.783Z,12.88
2022-10-14T19:30:23.713Z,14.03
2022-10-14T19:31:55.467Z,13.44
2022-10-14T19:33:27.239Z,15.21
2022-10-14T19:35:00.128Z,14.71
2022-10-14T19:36:31.633Z,15.02
2022-10-14T19:38:03.249Z,15.99
2022-10-14T19:39:34.836Z,16.02
2022-10-14T19:41:06.563Z,14.30
2022-10-14T19:42:58.739Z,13.90
2022-10-14T19:44:30.208Z,13.78
2022-10-14T19:46:02.143Z,13.00
2022-10-14T19:47:33.834Z,14.90
2022-10-14T19:49:10.179Z,14.34
2022-10-14T19:50:41.749Z,15.28
2022-10-14T19:52:13.333Z,14.24
2022-10-14T19:53:44.744Z,14.94
2022-10-14T19:55:16.253Z,12.58
2022-10-14T19:56:47.813Z,13.51
2022-10-14T19:58:19.471Z,12.83
2022-10-14T19:59:51.216Z,14.57
2022-10-14T20:01:27.605Z,13.77
2022-10-14T20:02:59.167Z,13.29
2022-10-14T20:04:31.259Z,14.16
2022-10-14T20:06:03.055Z,15.06
2022-10-14T20:07:34.672Z,14.76
2022-10-14T20:09:11.331Z,15.75
2022-10-14T20:10:42.733Z,15.33
2022-10-14T20:13:05.502Z,13.97
2022-10-14T20:14:36.856Z,15.21
2022-10-14T20:16:08.142Z,14.61
2022-10-14T20:18:00.297Z,15.76
2022-10-14T20:19:31.730Z,14.79
2022-10-14T20:21:03.785Z,18.60
2022-10-14T20:22:35.436Z,16.32
2022-10-14T20:24:06.928Z,15.31
2022-10-14T20:25:38.497Z,15.67
2022-10-14T20:27:12.036Z,14.96
2022-10-14T20:28:43.788Z,15.64
2022-10-14T20:30:38.595Z,15.20
2022-10-14T20:32:10.589Z,14.51
2022-10-14T20:33:42.472Z,14.38
2022-10-14T20:35:15.095Z,14.20
2022-10-14T20:36:46.914Z,15.31
2022-10-14T20:38:18.700Z,15.71
2022-10-14T20:39:50.400Z,14.55
2022-10-14T20:41:22.089Z,16.65
2022-10-14T20:42:53.832Z,15.02
2022-10-14T20:44:25.491Z,14.24
2022-10-14T20:45:57.834Z,15.02
2022-10-14T20:47:29.186Z,13.03
2022-10-14T20:49:00.802Z,13.05
2022-10-14T20:50:39.704Z,15.56
2022-10-14T20:52:11.317Z,13.80
2022-10-14T20:53:42.781Z,15.78